Terminal Aerodrome Forecast
Issued by NWS Wilmington, OH

Current Version | Previous Version | Graphics & Text | Print | Product List | Glossary On
Versions: 1 2 3 4 5 6 7 8 9 10 11 12 13 14 15 16 17 18
410
FTUS41 KILN 251736
TAFCMH
TAF
KCMH 251736Z 2518/2618 21012KT P6SM BKN060
     FM260800 14005KT P6SM VCSH OVC090
     FM261000 14005KT 6SM -SHRA BR OVC090
     FM261200 15006KT 4SM -SHRA BR OVC050
     FM261600 16010KT 4SM -SHRA BR OVC025=

USA.gov is the U.S. government's official web portal to all federal, state and local government web resources and services.